sensor_id;sensor_type;location;lat;lon;timestamp;pressure;altitude;pressure_sealevel;temperature;humidity
35011;BME280;21205;37.378;127.098;2023-02-28T12:34:12;100826.94;;;24.60;33.50
35011;BME280;21205;37.378;127.098;2023-02-28T12:36:44;100826.97;;;24.64;33.44
35011;BME280;21205;37.378;127.098;2023-02-28T12:39:26;100829.34;;;24.62;33.57
35011;BME280;21205;37.378;127.098;2023-02-28T12:42:10;100833.41;;;24.64;33.55
35011;BME280;21205;37.378;127.098;2023-02-28T12:44:48;100830.16;;;24.62;33.60
35011;BME280;21205;37.378;127.098;2023-02-28T12:47:20;100830.16;;;24.62;33.42
35011;BME280;21205;37.378;127.098;2023-02-28T12:49:57;100834.59;;;24.63;33.44
35011;BME280;21205;37.378;127.098;2023-02-28T12:58:51;100814.13;;;24.63;33.72
35011;BME280;21205;37.378;127.098;2023-02-28T13:10:05;100813.34;;;24.66;33.80
35011;BME280;21205;37.378;127.098;2023-02-28T13:12:36;100771.25;;;24.43;33.84
35011;BME280;21205;37.378;127.098;2023-02-28T13:15:25;100783.47;;;24.54;33.65
35011;BME280;21205;37.378;127.098;2023-02-28T13:17:58;100802.06;;;24.62;33.39
35011;BME280;21205;37.378;127.098;2023-02-28T13:20:35;100794.69;;;24.54;33.42
35011;BME280;21205;37.378;127.098;2023-02-28T13:26:15;100805.25;;;24.61;33.61
35011;BME280;21205;37.378;127.098;2023-02-28T13:31:24;100799.69;;;24.64;33.87
35011;BME280;21205;37.378;127.098;2023-02-28T13:36:32;100796.53;;;24.69;33.92
35011;BME280;21205;37.378;127.098;2023-02-28T13:39:43;100796.97;;;24.71;34.76
35011;BME280;21205;37.378;127.098;2023-02-28T13:41:52;100792.88;;;24.65;34.58
35011;BME280;21205;37.378;127.098;2023-02-28T13:44:23;100790.88;;;24.66;34.27
35011;BME280;21205;37.378;127.098;2023-02-28T13:49:30;100796.44;;;24.62;34.33
35011;BME280;21205;37.378;127.098;2023-02-28T13:57:58;100807.69;;;24.62;34.40
35011;BME280;21205;37.378;127.098;2023-02-28T14:03:48;100819.25;;;24.57;34.33
35011;BME280;21205;37.378;127.098;2023-02-28T14:06:32;100816.88;;;24.59;34.43
35011;BME280;21205;37.378;127.098;2023-02-28T14:09:16;100811.56;;;24.54;34.34
35011;BME280;21205;37.378;127.098;2023-02-28T14:11:48;100810.38;;;24.55;34.09
35011;BME280;21205;37.378;127.098;2023-02-28T14:17:12;100798.28;;;24.51;34.69
35011;BME280;21205;37.378;127.098;2023-02-28T14:19:47;100803.09;;;24.50;34.15
35011;BME280;21205;37.378;127.098;2023-02-28T14:28:11;100795.34;;;24.44;34.56
35011;BME280;21205;37.378;127.098;2023-02-28T14:38:50;100800.91;;;24.40;34.27
35011;BME280;21205;37.378;127.098;2023-02-28T14:41:37;100771.09;;;24.13;34.30
35011;BME280;21205;37.378;127.098;2023-02-28T14:44:22;100800.38;;;24.35;34.69
35011;BME280;21205;37.378;127.098;2023-02-28T14:49:27;100801.09;;;24.28;34.79
35011;BME280;21205;37.378;127.098;2023-02-28T14:54:43;100791.31;;;24.22;34.71
35011;BME280;21205;37.378;127.098;2023-02-28T14:57:24;100796.13;;;24.21;34.52
35011;BME280;21205;37.378;127.098;2023-02-28T15:02:33;100804.88;;;24.16;34.42
35011;BME280;21205;37.378;127.098;2023-02-28T15:07:46;100772.03;;;23.98;34.61
35011;BME280;21205;37.378;127.098;2023-02-28T15:10:26;100790.38;;;24.14;34.87
35011;BME280;21205;37.378;127.098;2023-02-28T15:12:58;100797.19;;;24.13;34.81
35011;BME280;21205;37.378;127.098;2023-02-28T15:18:53;100781.91;;;24.11;34.76
35011;BME280;21205;37.378;127.098;2023-02-28T15:21:22;100779.47;;;24.09;34.53
35011;BME280;21205;37.378;127.098;2023-02-28T15:23:54;100766.66;;;24.12;34.81
35011;BME280;21205;37.378;127.098;2023-02-28T15:26:34;100754.19;;;24.09;34.76
35011;BME280;21205;37.378;127.098;2023-02-28T15:29:07;100768.97;;;24.06;34.80
35011;BME280;21205;37.378;127.098;2023-02-28T15:31:44;100763.34;;;24.06;34.63
35011;BME280;21205;37.378;127.098;2023-02-28T15:34:42;100748.31;;;23.95;34.81
35011;BME280;21205;37.378;127.098;2023-02-28T15:46:06;100754.66;;;23.92;34.68
35011;BME280;21205;37.378;127.098;2023-02-28T15:48:53;100733.66;;;23.82;35.02
35011;BME280;21205;37.378;127.098;2023-02-28T15:51:37;100759.22;;;24.00;34.94
35011;BME280;21205;37.378;127.098;2023-02-28T15:54:07;100761.59;;;23.98;34.95
35011;BME280;21205;37.378;127.098;2023-02-28T15:56:45;100757.97;;;23.98;34.66
35011;BME280;21205;37.378;127.098;2023-02-28T15:59:22;100755.84;;;23.91;35.23
35011;BME280;21205;37.378;127.098;2023-02-28T16:07:43;100750.88;;;23.81;34.85
35011;BME280;21205;37.378;127.098;2023-02-28T16:10:13;100755.66;;;23.80;35.01
35011;BME280;21205;37.378;127.098;2023-02-28T16:12:44;100749.69;;;23.82;34.95
35011;BME280;21205;37.378;127.098;2023-02-28T16:15:28;100706.47;;;23.67;34.67
35011;BME280;21205;37.378;127.098;2023-02-28T16:17:58;100697.63;;;23.65;34.92
35011;BME280;21205;37.378;127.098;2023-02-28T16:20:30;100736.94;;;23.88;34.69
35011;BME280;21205;37.378;127.098;2023-02-28T16:23:00;100740.56;;;23.88;34.94
35011;BME280;21205;37.378;127.098;2023-02-28T16:25:40;100735.66;;;23.82;34.76
35011;BME280;21205;37.378;127.098;2023-02-28T16:28:29;100745.25;;;23.81;35.13
35011;BME280;21205;37.378;127.098;2023-02-28T16:31:02;100725.69;;;23.65;34.85
35011;BME280;21205;37.378;127.098;2023-02-28T16:33:33;100742.00;;;23.79;34.95
35011;BME280;21205;37.378;127.098;2023-02-28T16:36:03;100741.56;;;23.77;35.10
35011;BME280;21205;37.378;127.098;2023-02-28T16:38:33;100741.56;;;23.77;34.90
35011;BME280;21205;37.378;127.098;2023-02-28T16:41:03;100742.00;;;23.79;35.16
35011;BME280;21205;37.378;127.098;2023-02-28T16:43:33;100737.13;;;23.76;34.83
35011;BME280;21205;37.378;127.098;2023-02-28T16:46:02;100734.91;;;23.85;34.73
35011;BME280;21205;37.378;127.098;2023-02-28T16:48:32;100727.66;;;23.84;34.93
35011;BME280;21205;37.378;127.098;2023-02-28T16:51:02;100727.22;;;23.82;35.07
35011;BME280;21205;37.378;127.098;2023-02-28T16:53:33;100724.41;;;23.82;34.70
35011;BME280;21205;37.378;127.098;2023-02-28T16:56:03;100723.97;;;23.80;35.30
35011;BME280;21205;37.378;127.098;2023-02-28T16:58:35;100729.28;;;23.85;35.14
35011;BME280;21205;37.378;127.098;2023-02-28T17:01:04;100704.03;;;23.66;35.22
35011;BME280;21205;37.378;127.098;2023-02-28T17:03:34;100733.97;;;23.77;34.97
35011;BME280;21205;37.378;127.098;2023-02-28T17:06:11;100719.25;;;23.65;35.22
35011;BME280;21205;37.378;127.098;2023-02-28T17:08:45;100735.94;;;23.77;35.24
35011;BME280;21205;37.378;127.098;2023-02-28T17:11:15;100729.91;;;23.75;34.98
35011;BME280;21205;37.378;127.098;2023-02-28T17:13:45;100722.72;;;23.77;34.84
35011;BME280;21205;37.378;127.098;2023-02-28T17:16:32;100717.94;;;23.78;34.87
35011;BME280;21205;37.378;127.098;2023-02-28T17:19:06;100714.38;;;23.81;35.11
35011;BME280;21205;37.378;127.098;2023-02-28T17:21:36;100707.56;;;23.82;34.99
35011;BME280;21205;37.378;127.098;2023-02-28T17:24:06;100714.69;;;23.76;35.11
35011;BME280;21205;37.378;127.098;2023-02-28T17:26:40;100707.78;;;23.73;35.25
35011;BME280;21205;37.378;127.098;2023-02-28T17:29:20;100706.09;;;23.69;35.12
35011;BME280;21205;37.378;127.098;2023-02-28T17:31:50;100709.22;;;23.64;35.40
35011;BME280;21205;37.378;127.098;2023-02-28T17:34:20;100704.41;;;23.64;35.19
35011;BME280;21205;37.378;127.098;2023-02-28T17:36:51;100696.44;;;23.66;35.45
35011;BME280;21205;37.378;127.098;2023-02-28T17:39:22;100694.44;;;23.67;35.08
35011;BME280;21205;37.378;127.098;2023-02-28T17:41:54;100690.75;;;23.63;35.16
35011;BME280;21205;37.378;127.098;2023-02-28T17:44:24;100681.53;;;23.62;35.20
35011;BME280;21205;37.378;127.098;2023-02-28T17:46:55;100637.91;;;23.45;35.35
35011;BME280;21205;37.378;127.098;2023-02-28T17:49:25;100680.84;;;23.69;35.23
35011;BME280;21205;37.378;127.098;2023-02-28T17:51:55;100675.22;;;23.69;35.35
35011;BME280;21205;37.378;127.098;2023-02-28T17:54:24;100671.84;;;23.59;35.35
35011;BME280;21205;37.378;127.098;2023-02-28T17:56:54;100671.22;;;23.70;35.25
35011;BME280;21205;37.378;127.098;2023-02-28T17:59:24;100669.19;;;23.67;35.23
35011;BME280;21205;37.378;127.098;2023-02-28T18:01:53;100665.19;;;23.68;35.44
35011;BME280;21205;37.378;127.098;2023-02-28T18:04:23;100659.50;;;23.64;35.04
35011;BME280;21205;37.378;127.098;2023-02-28T18:06:55;100654.28;;;23.63;35.46
35011;BME280;21205;37.378;127.098;2023-02-28T18:09:28;100656.69;;;23.64;35.31
35011;BME280;21205;37.378;127.098;2023-02-28T18:11:58;100651.03;;;23.61;35.25
35011;BME280;21205;37.378;127.098;2023-02-28T18:14:28;100643.03;;;23.63;35.43
35011;BME280;21205;37.378;127.098;2023-02-28T18:16:58;100651.91;;;23.65;35.17
35011;BME280;21205;37.378;127.098;2023-02-28T18:19:28;100647.09;;;23.65;35.50
35011;BME280;21205;37.378;127.098;2023-02-28T18:21:58;100643.03;;;23.63;35.26
35011;BME280;21205;37.378;127.098;2023-02-28T18:24:28;100646.66;;;23.63;35.08
35011;BME280;21205;37.378;127.098;2023-02-28T18:26:58;100653.09;;;23.64;35.30
35011;BME280;21205;37.378;127.098;2023-02-28T18:29:28;100647.03;;;23.62;35.16
35011;BME280;21205;37.378;127.098;2023-02-28T18:31:58;100640.63;;;23.61;35.44
35011;BME280;21205;37.378;127.098;2023-02-28T18:34:30;100630.19;;;23.62;35.32
35011;BME280;21205;37.378;127.098;2023-02-28T18:37:00;100620.97;;;23.61;35.68
35011;BME280;21205;37.378;127.098;2023-02-28T18:39:30;100620.16;;;23.61;35.40
35011;BME280;21205;37.378;127.098;2023-02-28T18:42:01;100609.97;;;23.52;35.38
35011;BME280;21205;37.378;127.098;2023-02-28T18:44:30;100611.34;;;23.62;35.29
35011;BME280;21205;37.378;127.098;2023-02-28T18:47:00;100581.63;;;23.38;35.42
35011;BME280;21205;37.378;127.098;2023-02-28T18:49:33;100609.38;;;23.63;35.31
35011;BME280;21205;37.378;127.098;2023-02-28T18:52:03;100613.28;;;23.58;35.38
35011;BME280;21205;37.378;127.098;2023-02-28T18:54:34;100615.28;;;23.57;35.64
35011;BME280;21205;37.378;127.098;2023-02-28T18:57:04;100611.69;;;23.57;35.51
35011;BME280;21205;37.378;127.098;2023-02-28T18:59:34;100608.06;;;23.56;35.25
35011;BME280;21205;37.378;127.098;2023-02-28T19:02:04;100594.84;;;23.57;35.25
35011;BME280;21205;37.378;127.098;2023-02-28T19:04:34;100594.75;;;23.53;35.42
35011;BME280;21205;37.378;127.098;2023-02-28T19:07:03;100599.94;;;23.51;35.62
35011;BME280;21205;37.378;127.098;2023-02-28T19:09:34;100591.50;;;23.51;35.43
35011;BME280;21205;37.378;127.098;2023-02-28T19:12:03;100592.69;;;23.50;35.71
35011;BME280;21205;37.378;127.098;2023-02-28T19:14:34;100589.13;;;23.53;35.72
35011;BME280;21205;37.378;127.098;2023-02-28T19:17:03;100582.72;;;23.53;35.55
35011;BME280;21205;37.378;127.098;2023-02-28T19:19:33;100585.59;;;23.56;35.72
35011;BME280;21205;37.378;127.098;2023-02-28T19:22:03;100590.03;;;23.57;35.81
35011;BME280;21205;37.378;127.098;2023-02-28T19:24:32;100584.00;;;23.55;35.51
35011;BME280;21205;37.378;127.098;2023-02-28T19:27:02;100590.31;;;23.52;35.56
35011;BME280;21205;37.378;127.098;2023-02-28T19:29:32;100597.94;;;23.52;35.49
35011;BME280;21205;37.378;127.098;2023-02-28T19:32:02;100587.09;;;23.50;35.85
35011;BME280;21205;37.378;127.098;2023-02-28T19:34:32;100587.88;;;23.51;35.87
35011;BME280;21205;37.378;127.098;2023-02-28T19:37:02;100585.91;;;23.51;35.68
35011;BME280;21205;37.378;127.098;2023-02-28T19:39:32;100577.09;;;23.53;35.92
35011;BME280;21205;37.378;127.098;2023-02-28T19:42:16;100570.75;;;23.56;35.65
35011;BME280;21205;37.378;127.098;2023-02-28T19:44:46;100563.06;;;23.53;35.85
35011;BME280;21205;37.378;127.098;2023-02-28T19:47:16;100569.13;;;23.55;36.09
35011;BME280;21205;37.378;127.098;2023-02-28T19:49:45;100554.53;;;23.46;35.87
35011;BME280;21205;37.378;127.098;2023-02-28T19:52:15;100545.84;;;23.54;35.76
35011;BME280;21205;37.378;127.098;2023-02-28T19:54:45;100546.59;;;23.51;36.10
35011;BME280;21205;37.378;127.098;2023-02-28T19:57:14;100547.41;;;23.52;35.62
35011;BME280;21205;37.378;127.098;2023-02-28T19:59:44;100534.56;;;23.51;35.84
35011;BME280;21205;37.378;127.098;2023-02-28T20:02:17;100545.00;;;23.50;35.54
35011;BME280;21205;37.378;127.098;2023-02-28T20:04:49;100542.56;;;23.49;36.08
35011;BME280;21205;37.378;127.098;2023-02-28T20:07:19;100537.75;;;23.49;36.11
35011;BME280;21205;37.378;127.098;2023-02-28T20:09:49;100542.50;;;23.45;35.69
35011;BME280;21205;37.378;127.098;2023-02-28T20:12:19;100522.16;;;23.29;36.20
35011;BME280;21205;37.378;127.098;2023-02-28T20:14:52;100557.03;;;23.51;35.63
35011;BME280;21205;37.378;127.098;2023-02-28T20:17:27;100553.41;;;23.50;36.00
35011;BME280;21205;37.378;127.098;2023-02-28T20:19:56;100549.34;;;23.48;35.67
35011;BME280;21205;37.378;127.098;2023-02-28T20:22:26;100554.97;;;23.48;35.76
35011;BME280;21205;37.378;127.098;2023-02-28T20:24:56;100561.81;;;23.50;35.88
35011;BME280;21205;37.378;127.098;2023-02-28T20:27:25;100556.66;;;23.52;35.87
35011;BME280;21205;37.378;127.098;2023-02-28T20:29:55;100564.25;;;23.52;36.02
35011;BME280;21205;37.378;127.098;2023-02-28T20:32:25;100564.25;;;23.52;35.95
35011;BME280;21205;37.378;127.098;2023-02-28T20:34:55;100559.78;;;23.47;35.90
35011;BME280;21205;37.378;127.098;2023-02-28T20:37:26;100561.38;;;23.48;36.00
35011;BME280;21205;37.378;127.098;2023-02-28T20:39:56;100559.34;;;23.45;36.20
35011;BME280;21205;37.378;127.098;2023-02-28T20:42:26;100549.72;;;23.46;35.84
35011;BME280;21205;37.378;127.098;2023-02-28T20:44:55;100554.53;;;23.46;35.94
35011;BME280;21205;37.378;127.098;2023-02-28T20:47:25;100548.94;;;23.46;36.30
35011;BME280;21205;37.378;127.098;2023-02-28T20:49:55;100555.34;;;23.46;35.87
35011;BME280;21205;37.378;127.098;2023-02-28T20:52:24;100552.16;;;23.48;36.21
35011;BME280;21205;37.378;127.098;2023-02-28T20:54:54;100558.59;;;23.48;35.96
35011;BME280;21205;37.378;127.098;2023-02-28T20:57:24;100563.75;;;23.46;35.88
35011;BME280;21205;37.378;127.098;2023-02-28T20:59:56;100560.53;;;23.44;35.88
35011;BME280;21205;37.378;127.098;2023-02-28T21:02:26;100554.53;;;23.46;35.90
35011;BME280;21205;37.378;127.098;2023-02-28T21:04:56;100559.41;;;23.49;36.20
35011;BME280;21205;37.378;127.098;2023-02-28T21:07:27;100525.72;;;23.26;35.94
35011;BME280;21205;37.378;127.098;2023-02-28T21:09:57;100555.34;;;23.46;36.36
35011;BME280;21205;37.378;127.098;2023-02-28T21:12:27;100552.97;;;23.48;36.39
35011;BME280;21205;37.378;127.098;2023-02-28T21:14:56;100548.06;;;23.42;36.08
35011;BME280;21205;37.378;127.098;2023-02-28T21:17:27;100554.47;;;23.42;36.26
35011;BME280;21205;37.378;127.098;2023-02-28T21:19:57;100522.16;;;23.29;35.90
35011;BME280;21205;37.378;127.098;2023-02-28T21:22:27;100550.91;;;23.45;36.27
35011;BME280;21205;37.378;127.098;2023-02-28T21:24:56;100548.13;;;23.45;36.14
35011;BME280;21205;37.378;127.098;2023-02-28T21:27:26;100543.69;;;23.44;36.38
35011;BME280;21205;37.378;127.098;2023-02-28T21:29:56;100549.31;;;23.44;36.39
35011;BME280;21205;37.378;127.098;2023-02-28T21:32:25;100549.31;;;23.44;36.14
35011;BME280;21205;37.378;127.098;2023-02-28T21:34:55;100549.69;;;23.43;36.25
35011;BME280;21205;37.378;127.098;2023-02-28T21:37:24;100553.72;;;23.45;36.13
35011;BME280;21205;37.378;127.098;2023-02-28T21:39:54;100559.34;;;23.45;35.97
35011;BME280;21205;37.378;127.098;2023-02-28T21:42:24;100546.88;;;23.43;36.47
35011;BME280;21205;37.378;127.098;2023-02-28T21:44:54;100545.69;;;23.44;36.41
35011;BME280;21205;37.378;127.098;2023-02-28T21:47:27;100546.50;;;23.44;36.41
35011;BME280;21205;37.378;127.098;2023-02-28T21:49:58;100548.88;;;23.42;36.27
35011;BME280;21205;37.378;127.098;2023-02-28T21:52:27;100507.91;;;23.15;36.38
35011;BME280;21205;37.378;127.098;2023-02-28T21:54:57;100546.88;;;23.43;36.27
35011;BME280;21205;37.378;127.098;2023-02-28T21:57:27;100543.16;;;23.39;36.35
35011;BME280;21205;37.378;127.098;2023-02-28T21:59:58;100543.97;;;23.39;35.97
35011;BME280;21205;37.378;127.098;2023-02-28T22:02:28;100548.41;;;23.40;36.08
35011;BME280;21205;37.378;127.098;2023-02-28T22:04:57;100538.38;;;23.39;35.98
35011;BME280;21205;37.378;127.098;2023-02-28T22:07:31;100536.75;;;23.38;36.06
35011;BME280;21205;37.378;127.098;2023-02-28T22:10:01;100556.75;;;23.37;36.50
35011;BME280;21205;37.378;127.098;2023-02-28T22:12:30;100543.50;;;23.34;36.44
35011;BME280;21205;37.378;127.098;2023-02-28T22:15:00;100543.97;;;23.39;35.81
35011;BME280;21205;37.378;127.098;2023-02-28T22:17:30;100540.63;;;23.53;36.17
35011;BME280;21205;37.378;127.098;2023-02-28T22:19:59;100536.09;;;23.45;36.24
35011;BME280;21205;37.378;127.098;2023-02-28T22:22:29;100534.84;;;23.42;36.33
35011;BME280;21205;37.378;127.098;2023-02-28T22:24:58;100531.28;;;23.45;36.08
35011;BME280;21205;37.378;127.098;2023-02-28T22:27:28;100531.28;;;23.45;36.11
35011;BME280;21205;37.378;127.098;2023-02-28T22:29:58;100533.34;;;23.48;36.38
35011;BME280;21205;37.378;127.098;2023-02-28T22:32:28;100531.38;;;23.52;36.33
35011;BME280;21205;37.378;127.098;2023-02-28T22:34:57;100538.63;;;23.53;36.04
35011;BME280;21205;37.378;127.098;2023-02-28T22:37:27;100534.63;;;23.54;36.35
35011;BME280;21205;37.378;127.098;2023-02-28T22:39:57;100506.25;;;23.37;36.53
35011;BME280;21205;37.378;127.098;2023-02-28T22:42:26;100530.56;;;23.52;36.01
35011;BME280;21205;37.378;127.098;2023-02-28T22:44:56;100537.09;;;23.56;36.32
35011;BME280;21205;37.378;127.098;2023-02-28T22:47:25;100530.66;;;23.55;36.18
35011;BME280;21205;37.378;127.098;2023-02-28T22:49:55;100539.13;;;23.59;36.18
35011;BME280;21205;37.378;127.098;2023-02-28T22:52:25;100534.75;;;23.62;36.37
35011;BME280;21205;37.378;127.098;2023-02-28T22:54:55;100542.00;;;23.63;36.31
35011;BME280;21205;37.378;127.098;2023-02-28T22:57:26;100538.75;;;23.61;36.08
35011;BME280;21205;37.378;127.098;2023-02-28T22:59:56;100538.75;;;23.61;36.24
35011;BME280;21205;37.378;127.098;2023-02-28T23:02:26;100500.72;;;23.40;36.46
35011;BME280;21205;37.378;127.098;2023-02-28T23:04:55;100525.53;;;23.61;36.32
35011;BME280;21205;37.378;127.098;2023-02-28T23:07:25;100525.53;;;23.61;36.15
35011;BME280;21205;37.378;127.098;2023-02-28T23:09:55;100520.06;;;23.45;36.19
35011;BME280;21205;37.378;127.098;2023-02-28T23:12:24;100527.53;;;23.61;36.03
35011;BME280;21205;37.378;127.098;2023-02-28T23:14:55;100528.41;;;23.65;36.32
35011;BME280;21205;37.378;127.098;2023-02-28T23:17:24;100528.03;;;23.66;36.12
35011;BME280;21205;37.378;127.098;2023-02-28T23:19:54;100538.09;;;23.71;35.75
35011;BME280;21205;37.378;127.098;2023-02-28T23:22:24;100518.72;;;23.62;36.93
35011;BME280;21205;37.378;127.098;2023-02-28T23:24:53;100534.19;;;23.75;37.82
35011;BME280;21205;37.378;127.098;2023-02-28T23:27:23;100539.06;;;23.78;37.75
35011;BME280;21205;37.378;127.098;2023-02-28T23:29:52;100549.56;;;23.85;38.30
35011;BME280;21205;37.378;127.098;2023-02-28T23:32:22;100550.44;;;23.89;38.07
35011;BME280;21205;37.378;127.098;2023-02-28T23:34:52;100552.38;;;23.85;37.90
35011;BME280;21205;37.378;127.098;2023-02-28T23:37:23;100559.28;;;23.91;37.74
35011;BME280;21205;37.378;127.098;2023-02-28T23:39:52;100557.66;;;23.90;38.14
35011;BME280;21205;37.378;127.098;2023-02-28T23:42:22;100554.00;;;23.86;38.49
35011;BME280;21205;37.378;127.098;2023-02-28T23:44:52;100550.72;;;23.80;38.75
35011;BME280;21205;37.378;127.098;2023-02-28T23:47:21;100550.28;;;23.78;38.55
35011;BME280;21205;37.378;127.098;2023-02-28T23:49:51;100545.44;;;23.75;38.26
35011;BME280;21205;37.378;127.098;2023-02-28T23:52:21;100536.53;;;23.73;38.54
35011;BME280;21205;37.378;127.098;2023-02-28T23:54:51;100540.53;;;23.72;38.34
35011;BME280;21205;37.378;127.098;2023-02-28T23:57:20;100545.72;;;23.70;37.90
35011;BME280;21205;37.378;127.098;2023-02-28T23:59:51;100537.25;;;23.67;38.07
